createdAt,value
2017-05-19T00:00:09.800Z,12.03
2017-05-19T00:02:38.086Z,11.50
2017-05-19T00:05:06.394Z,12.00
2017-05-19T00:07:34.683Z,13.52
2017-05-19T00:10:03.112Z,12.63
2017-05-19T00:12:31.404Z,12.35
2017-05-19T00:14:59.752Z,10.80
2017-05-19T00:17:28.148Z,14.07
2017-05-19T00:19:56.463Z,12.70
2017-05-19T00:22:24.749Z,10.80
2017-05-19T00:24:53.219Z,11.17
2017-05-19T00:27:21.518Z,11.13
2017-05-19T00:29:49.814Z,12.07
2017-05-19T00:32:18.235Z,13.07
2017-05-19T00:34:47.084Z,12.55
2017-05-19T00:37:16.163Z,13.33
2017-05-19T00:39:44.461Z,12.48
2017-05-19T00:42:13.515Z,13.78
2017-05-19T00:44:41.808Z,13.80
2017-05-19T00:47:10.083Z,12.52
2017-05-19T00:49:38.396Z,12.73
2017-05-19T00:52:07.474Z,12.13
2017-05-19T00:54:35.796Z,13.25
2017-05-19T00:57:04.075Z,12.07
2017-05-19T00:59:32.435Z,12.95
2017-05-19T01:02:00.753Z,12.12
2017-05-19T01:04:29.474Z,11.57
2017-05-19T01:06:57.801Z,12.72
2017-05-19T01:09:26.103Z,13.90
2017-05-19T01:11:54.456Z,13.32
2017-05-19T01:14:22.750Z,14.40
2017-05-19T01:16:51.020Z,12.20
2017-05-19T01:19:19.337Z,12.85
2017-05-19T01:21:47.645Z,14.28
2017-05-19T01:24:15.964Z,13.73
2017-05-19T01:26:44.263Z,14.43
2017-05-19T01:29:12.661Z,12.27
2017-05-19T01:31:41.720Z,12.42
2017-05-19T01:34:10.122Z,13.13
2017-05-19T01:36:38.416Z,12.82
2017-05-19T01:39:06.726Z,13.80
2017-05-19T01:41:35.042Z,13.48
2017-05-19T01:44:03.419Z,13.07
2017-05-19T01:46:32.047Z,11.92
2017-05-19T01:49:00.358Z,13.52
2017-05-19T01:51:28.664Z,13.18
2017-05-19T01:53:56.953Z,12.87
2017-05-19T01:56:25.255Z,16.23
2017-05-19T01:58:53.550Z,13.87
2017-05-19T02:01:21.840Z,13.37
2017-05-19T02:03:50.134Z,13.20
2017-05-19T02:06:18.463Z,14.03
2017-05-19T02:08:47.496Z,13.43
2017-05-19T02:11:15.826Z,14.38
2017-05-19T02:13:44.880Z,14.13
2017-05-19T02:16:13.159Z,13.82
2017-05-19T02:18:41.507Z,13.60
2017-05-19T02:21:09.802Z,14.18
2017-05-19T02:23:38.074Z,13.90
2017-05-19T02:26:06.380Z,14.17
2017-05-19T02:28:34.796Z,18.35
2017-05-19T02:31:03.948Z,14.03
2017-05-19T02:33:32.275Z,13.28
2017-05-19T02:36:00.586Z,15.53
2017-05-19T02:38:28.924Z,14.90
2017-05-19T02:40:57.980Z,14.68
2017-05-19T02:43:26.299Z,14.53
2017-05-19T02:45:55.353Z,14.95
2017-05-19T02:48:23.644Z,14.15
2017-05-19T02:50:51.952Z,13.08
2017-05-19T02:53:21.011Z,14.77
2017-05-19T02:55:49.296Z,13.80
2017-05-19T02:58:17.588Z,16.38
2017-05-19T03:00:45.899Z,13.15
2017-05-19T03:03:14.199Z,13.77
2017-05-19T03:05:42.608Z,13.53
2017-05-19T03:08:13.565Z,14.32
2017-05-19T03:10:41.851Z,14.02
2017-05-19T03:13:10.916Z,14.35
2017-05-19T03:15:39.194Z,15.47
2017-05-19T03:18:07.487Z,14.93
2017-05-19T03:20:35.847Z,14.92
2017-05-19T03:23:04.118Z,15.83
2017-05-19T03:25:32.896Z,15.13
2017-05-19T03:28:01.468Z,15.83
2017-05-19T03:30:30.479Z,15.65
2017-05-19T03:32:58.859Z,17.02
2017-05-19T03:35:27.139Z,16.82
2017-05-19T03:37:55.980Z,15.13
2017-05-19T03:40:24.344Z,15.78
2017-05-19T03:42:52.660Z,16.37
2017-05-19T03:45:21.005Z,15.87
2017-05-19T03:47:50.035Z,15.30
2017-05-19T03:50:18.348Z,15.93
2017-05-19T03:52:46.695Z,14.95
2017-05-19T03:55:15.009Z,16.72
2017-05-19T03:57:43.367Z,16.77
2017-05-19T04:00:11.665Z,18.48
2017-05-19T04:02:39.950Z,17.92
2017-05-19T04:05:08.250Z,16.38
2017-05-19T04:07:37.351Z,15.87
2017-05-19T04:10:06.816Z,14.98
2017-05-19T04:12:35.133Z,15.53
2017-05-19T04:15:04.164Z,17.12
2017-05-19T04:17:32.558Z,16.40
2017-05-19T04:20:00.882Z,15.95
2017-05-19T04:22:30.059Z,16.45
2017-05-19T04:24:59.141Z,16.33
2017-05-19T04:27:27.471Z,15.73
2017-05-19T04:29:55.734Z,17.93
2017-05-19T04:32:24.798Z,20.85
2017-05-19T04:34:53.071Z,21.42
2017-05-19T04:37:21.444Z,16.45
2017-05-19T04:39:49.743Z,16.43
2017-05-19T04:42:18.020Z,15.83
2017-05-19T04:44:46.303Z,16.75
2017-05-19T04:47:14.603Z,17.02
2017-05-19T04:49:42.875Z,18.07
2017-05-19T04:52:11.154Z,17.72
2017-05-19T04:54:39.442Z,18.40
2017-05-19T04:57:08.529Z,16.48
2017-05-19T04:59:36.805Z,16.43
2017-05-19T05:02:05.122Z,17.38
2017-05-19T05:04:33.396Z,15.67
2017-05-19T05:07:02.119Z,16.03
2017-05-19T05:09:30.405Z,16.48
2017-05-19T05:11:59.493Z,16.08
2017-05-19T05:14:27.890Z,20.90
2017-05-19T05:16:56.942Z,17.30
2017-05-19T05:19:25.216Z,18.53
2017-05-19T05:21:53.512Z,17.02
2017-05-19T05:24:21.784Z,18.80
2017-05-19T05:26:50.252Z,17.57
2017-05-19T05:29:18.670Z,17.05
2017-05-19T05:31:46.968Z,16.30
2017-05-19T05:34:15.310Z,20.28
2017-05-19T05:36:43.707Z,19.20
2017-05-19T05:39:11.987Z,16.67
2017-05-19T05:41:41.025Z,17.73
2017-05-19T05:44:10.106Z,20.80
2017-05-19T05:46:38.386Z,15.40
2017-05-19T05:49:06.688Z,19.77
2017-05-19T05:51:34.961Z,18.10
2017-05-19T05:54:03.288Z,16.87
2017-05-19T05:56:32.337Z,19.55
2017-05-19T05:59:00.631Z,16.67
2017-05-19T06:01:28.904Z,28.63
2017-05-19T06:03:57.191Z,16.15
2017-05-19T06:06:25.479Z,15.67
2017-05-19T06:08:53.791Z,14.92
2017-05-19T06:11:22.308Z,14.55
2017-05-19T06:13:50.607Z,14.83
2017-05-19T06:16:19.008Z,16.57
2017-05-19T06:18:48.064Z,20.68
2017-05-19T06:21:16.381Z,20.32
2017-05-19T06:23:45.404Z,15.00
2017-05-19T06:26:14.489Z,15.17
2017-05-19T06:28:42.819Z,18.55
2017-05-19T06:31:11.221Z,14.48
2017-05-19T06:33:39.506Z,15.90
2017-05-19T06:36:07.787Z,16.85
2017-05-19T06:38:36.293Z,17.10
2017-05-19T06:41:04.630Z,27.32
2017-05-19T06:43:33.020Z,16.13
2017-05-19T06:46:02.180Z,17.35
2017-05-19T06:48:30.511Z,15.13
2017-05-19T06:50:59.560Z,16.88
2017-05-19T06:53:27.923Z,16.58
2017-05-19T06:55:56.283Z,15.83
2017-05-19T06:58:24.589Z,17.57
2017-05-19T07:00:52.966Z,14.93
2017-05-19T07:03:21.638Z,17.68
2017-05-19T07:05:49.963Z,16.93
2017-05-19T07:08:18.410Z,15.58
2017-05-19T07:10:46.721Z,17.23
2017-05-19T07:13:15.016Z,15.95
2017-05-19T07:15:43.450Z,14.60
2017-05-19T07:18:11.757Z,14.62
2017-05-19T07:20:40.062Z,16.23
2017-05-19T07:23:08.378Z,14.98
2017-05-19T07:25:36.689Z,16.28
2017-05-19T07:28:05.021Z,14.30
2017-05-19T07:30:33.330Z,15.13
2017-05-19T07:33:01.815Z,14.32
2017-05-19T07:35:30.157Z,14.90
2017-05-19T07:37:58.479Z,14.37
2017-05-19T07:40:26.784Z,16.63
2017-05-19T07:42:55.876Z,14.32
2017-05-19T07:45:24.923Z,14.80
2017-05-19T07:47:53.276Z,16.68
2017-05-19T07:50:21.646Z,15.18
2017-05-19T07:52:49.991Z,13.72
2017-05-19T07:55:18.359Z,11.55
2017-05-19T07:57:46.778Z,14.13
2017-05-19T08:00:15.126Z,13.38
2017-05-19T08:02:43.423Z,15.10
2017-05-19T08:05:11.727Z,13.85
2017-05-19T08:07:40.073Z,13.83
2017-05-19T08:10:09.143Z,13.90
2017-05-19T08:12:37.495Z,12.97
2017-05-19T08:15:05.804Z,18.58
2017-05-19T08:17:34.109Z,14.00
2017-05-19T08:20:02.396Z,12.23
2017-05-19T08:22:30.699Z,14.85
2017-05-19T08:24:58.987Z,16.50
2017-05-19T08:27:27.289Z,13.38
2017-05-19T08:29:55.593Z,17.35
2017-05-19T08:32:24.615Z,18.23
2017-05-19T08:34:52.982Z,12.97
2017-05-19T08:37:21.350Z,12.47
2017-05-19T08:39:49.694Z,12.62
2017-05-19T08:42:18.018Z,13.70
2017-05-19T08:44:46.357Z,12.73
2017-05-19T08:47:15.536Z,13.33
2017-05-19T08:49:44.755Z,11.55
2017-05-19T08:52:13.191Z,13.20
2017-05-19T08:54:41.516Z,11.55
2017-05-19T08:57:09.865Z,24.37
2017-05-19T08:59:38.136Z,9.52
2017-05-19T09:02:06.872Z,10.85
2017-05-19T09:04:36.008Z,9.38
2017-05-19T09:07:04.300Z,10.17
2017-05-19T09:09:32.659Z,11.43
2017-05-19T09:12:01.071Z,9.72
2017-05-19T09:14:29.331Z,10.48
2017-05-19T09:16:57.624Z,14.63
2017-05-19T09:19:25.958Z,9.48
2017-05-19T09:21:54.248Z,8.55
2017-05-19T09:24:22.534Z,12.72
2017-05-19T09:26:51.812Z,9.35
2017-05-19T09:29:20.083Z,11.27
2017-05-19T09:31:48.375Z,10.28
2017-05-19T09:34:16.714Z,8.97
2017-05-19T09:36:45.033Z,9.53
2017-05-19T09:39:13.399Z,10.32
2017-05-19T09:41:41.731Z,9.80
2017-05-19T09:44:10.016Z,9.97
2017-05-19T09:46:40.424Z,8.90
2017-05-19T09:49:08.732Z,16.90
2017-05-19T09:51:37.018Z,8.20
2017-05-19T09:54:05.347Z,8.00
2017-05-19T09:56:33.688Z,10.23
2017-05-19T09:59:02.765Z,8.80
2017-05-19T10:01:31.124Z,8.33
2017-05-19T10:03:59.416Z,15.88
2017-05-19T10:06:27.767Z,11.13
2017-05-19T10:08:56.109Z,9.70
2017-05-19T10:11:24.388Z,13.13
2017-05-19T10:13:52.739Z,9.48
2017-05-19T10:16:21.183Z,7.97
2017-05-19T10:19:18.067Z,13.93
2017-05-19T10:21:46.400Z,7.83
2017-05-19T10:24:14.736Z,9.13
2017-05-19T10:26:43.180Z,9.70
2017-05-19T10:29:11.639Z,8.67
2017-05-19T10:31:39.966Z,7.47
2017-05-19T10:34:08.269Z,8.05
2017-05-19T10:36:36.566Z,9.32
2017-05-19T10:39:04.976Z,8.03
2017-05-19T10:41:33.275Z,7.14
2017-05-19T10:44:01.746Z,7.26
2017-05-19T10:46:30.063Z,10.46
2017-05-19T10:48:58.411Z,10.68
2017-05-19T10:51:26.726Z,11.30
2017-05-19T10:53:55.071Z,6.08
2017-05-19T10:56:23.382Z,5.40
2017-05-19T10:58:51.732Z,7.08
2017-05-19T11:01:20.262Z,7.14
2017-05-19T11:03:48.546Z,6.00
2017-05-19T11:06:16.879Z,5.94
2017-05-19T11:08:45.255Z,7.12
2017-05-19T11:11:13.526Z,5.34
2017-05-19T11:13:41.820Z,5.74
2017-05-19T11:16:10.133Z,6.52
2017-05-19T11:18:38.404Z,5.80
2017-05-19T11:21:06.729Z,5.48
2017-05-19T11:23:35.040Z,6.76
2017-05-19T11:26:03.319Z,7.52
2017-05-19T11:28:31.609Z,4.50
2017-05-19T11:31:00.084Z,7.50
2017-05-19T11:33:28.367Z,7.12
2017-05-19T11:35:56.654Z,7.12
2017-05-19T11:38:24.955Z,5.58
2017-05-19T11:40:53.298Z,7.38
2017-05-19T11:43:21.630Z,4.56
2017-05-19T11:45:49.162Z,4.32
2017-05-19T11:48:17.434Z,5.90
2017-05-19T11:50:46.133Z,4.92
2017-05-19T11:53:14.416Z,4.42
2017-05-19T11:55:42.687Z,5.26
2017-05-19T11:58:11.011Z,4.44
2017-05-19T12:00:39.423Z,4.24
2017-05-19T12:03:07.722Z,5.24
2017-05-19T12:05:35.982Z,4.64
2017-05-19T12:08:04.281Z,5.10
2017-05-19T12:10:32.546Z,6.06
2017-05-19T12:13:00.880Z,5.16
2017-05-19T12:15:29.168Z,6.04
2017-05-19T12:17:57.475Z,5.02
2017-05-19T12:20:26.151Z,5.78
2017-05-19T12:22:54.435Z,4.34
2017-05-19T12:25:22.750Z,4.86
2017-05-19T12:27:51.046Z,5.18
2017-05-19T12:30:18.568Z,3.84
2017-05-19T12:32:46.875Z,6.92
2017-05-19T12:35:15.164Z,4.80
2017-05-19T12:37:43.435Z,5.84
2017-05-19T12:40:11.745Z,5.70
2017-05-19T12:42:40.047Z,4.48
2017-05-19T12:45:08.425Z,4.30
2017-05-19T12:47:36.769Z,8.10
2017-05-19T12:50:05.111Z,4.46
2017-05-19T12:52:33.446Z,3.92
2017-05-19T12:55:01.742Z,4.22
2017-05-19T12:57:30.124Z,4.82
2017-05-19T12:59:58.432Z,9.94
2017-05-19T13:02:26.767Z,7.28
2017-05-19T13:04:55.067Z,4.90
2017-05-19T13:07:23.361Z,4.68
2017-05-19T13:09:51.659Z,4.76
2017-05-19T13:12:19.984Z,6.24
2017-05-19T13:14:48.297Z,5.32
2017-05-19T13:17:16.783Z,5.88
2017-05-19T13:19:45.114Z,6.40
2017-05-19T13:22:13.385Z,5.44
2017-05-19T13:24:41.684Z,5.30
2017-05-19T13:27:10.003Z,5.52
2017-05-19T13:29:38.293Z,5.06
2017-05-19T13:32:06.573Z,6.26
2017-05-19T13:34:34.945Z,6.50
2017-05-19T13:37:03.334Z,5.32
2017-05-19T13:39:31.610Z,6.08
2017-05-19T13:41:59.950Z,7.92
2017-05-19T13:44:29.706Z,5.66
2017-05-19T13:46:58.088Z,5.10
2017-05-19T13:49:27.390Z,5.50
2017-05-19T13:51:55.746Z,6.32
2017-05-19T13:54:24.115Z,5.92
2017-05-19T13:56:52.439Z,5.34
2017-05-19T13:59:20.807Z,5.82
2017-05-19T14:01:49.184Z,9.62
2017-05-19T14:04:17.451Z,5.90
2017-05-19T14:06:45.835Z,6.36
2017-05-19T14:09:14.160Z,8.12
2017-05-19T14:11:42.450Z,7.42
2017-05-19T14:14:10.786Z,6.92
2017-05-19T14:16:39.071Z,9.70
2017-05-19T14:19:07.363Z,6.82
2017-05-19T14:21:35.665Z,7.98
2017-05-19T14:24:03.983Z,6.46
2017-05-19T14:26:32.398Z,5.94
2017-05-19T14:29:00.703Z,7.10
2017-05-19T14:31:29.380Z,5.26
2017-05-19T14:33:57.845Z,11.06
2017-05-19T14:36:26.186Z,6.22
2017-05-19T14:38:54.467Z,6.12
2017-05-19T14:41:22.815Z,8.32
2017-05-19T14:43:51.190Z,5.94
2017-05-19T14:46:19.544Z,8.74
2017-05-19T14:48:47.836Z,8.16
2017-05-19T14:51:16.706Z,5.30
2017-05-19T14:53:45.105Z,7.12
2017-05-19T14:56:13.418Z,5.88
2017-05-19T14:58:41.757Z,6.10
2017-05-19T15:01:10.183Z,5.88
2017-05-19T15:03:38.493Z,7.54
2017-05-19T15:06:06.774Z,8.86
2017-05-19T15:08:35.095Z,7.38
2017-05-19T15:11:03.432Z,5.26
2017-05-19T15:13:31.764Z,5.44
2017-05-19T15:16:00.087Z,6.86
2017-05-19T15:18:28.396Z,6.30
2017-05-19T15:20:56.743Z,5.66
2017-05-19T15:23:25.135Z,6.10
2017-05-19T15:25:53.419Z,5.20
2017-05-19T15:28:21.746Z,5.04
2017-05-19T15:30:50.085Z,5.58
2017-05-19T15:33:19.051Z,10.16
2017-05-19T15:35:47.320Z,6.02
2017-05-19T15:38:15.640Z,6.34
2017-05-19T15:40:43.932Z,6.18
2017-05-19T15:43:12.238Z,8.16
2017-05-19T15:45:40.543Z,6.10
2017-05-19T15:48:08.868Z,5.80
2017-05-19T15:50:37.173Z,6.60
2017-05-19T15:53:05.460Z,6.90
2017-05-19T15:55:33.813Z,5.76
2017-05-19T15:58:02.549Z,5.00
2017-05-19T16:00:30.874Z,7.96
2017-05-19T16:02:59.176Z,8.64
2017-05-19T16:05:27.652Z,8.54
2017-05-19T16:07:56.041Z,6.80
2017-05-19T16:10:24.410Z,7.88
2017-05-19T16:12:52.849Z,7.30
2017-05-19T16:15:21.158Z,5.80
2017-05-19T16:17:49.543Z,6.70
2017-05-19T16:20:17.977Z,6.64
2017-05-19T16:22:46.298Z,6.86
2017-05-19T16:25:14.752Z,8.94
2017-05-19T16:27:43.058Z,5.82
2017-05-19T16:30:11.365Z,5.80
2017-05-19T16:32:39.697Z,5.76
2017-05-19T16:35:08.017Z,5.96
2017-05-19T16:37:36.325Z,7.12
2017-05-19T16:40:04.692Z,10.28
2017-05-19T16:42:33.014Z,6.00
2017-05-19T16:45:01.302Z,5.46
2017-05-19T16:47:29.662Z,6.58
2017-05-19T16:49:57.969Z,7.24
2017-05-19T16:52:26.270Z,6.76
2017-05-19T16:54:54.577Z,6.52
2017-05-19T16:57:22.927Z,8.10
2017-05-19T16:59:51.225Z,6.60
2017-05-19T17:02:19.552Z,8.30
2017-05-19T17:04:47.844Z,6.44
2017-05-19T17:07:16.202Z,7.06
2017-05-19T17:09:44.510Z,8.70
2017-05-19T17:12:12.886Z,9.06
2017-05-19T17:14:41.210Z,7.20
2017-05-19T17:17:09.511Z,12.94
2017-05-19T17:19:37.805Z,5.98
2017-05-19T17:22:06.103Z,12.14
2017-05-19T17:24:34.470Z,7.12
2017-05-19T17:27:02.782Z,5.32
2017-05-19T17:29:31.069Z,8.14
2017-05-19T17:31:59.373Z,9.48
2017-05-19T17:34:28.015Z,11.70
2017-05-19T17:36:56.416Z,8.08
2017-05-19T17:39:24.703Z,9.40
2017-05-19T17:41:53.243Z,7.82
2017-05-19T17:44:21.591Z,8.84
2017-05-19T17:46:49.910Z,15.40
2017-05-19T17:49:18.187Z,8.34
2017-05-19T17:51:46.494Z,10.64
2017-05-19T17:54:15.764Z,9.58
2017-05-19T17:56:44.062Z,29.64
2017-05-19T17:59:12.368Z,16.88
2017-05-19T18:01:41.479Z,17.10
2017-05-19T18:04:09.856Z,8.10
2017-05-19T18:06:38.195Z,13.57
2017-05-19T18:09:06.628Z,13.52
2017-05-19T18:11:34.939Z,12.17
2017-05-19T18:14:02.479Z,10.58
2017-05-19T18:16:30.888Z,12.45
2017-05-19T18:18:59.216Z,19.70
2017-05-19T18:21:27.556Z,55.72
2017-05-19T18:23:55.132Z,30.48
2017-05-19T18:26:23.509Z,16.32
2017-05-19T18:28:52.015Z,24.17
2017-05-19T18:31:20.334Z,11.73
2017-05-19T18:33:48.652Z,15.85
2017-05-19T18:36:17.024Z,14.78
2017-05-19T18:38:45.361Z,12.93
2017-05-19T18:41:13.665Z,10.23
2017-05-19T18:43:42.004Z,11.22
2017-05-19T18:46:10.312Z,10.20
2017-05-19T18:48:38.774Z,9.03
2017-05-19T18:51:07.136Z,10.08
2017-05-19T18:53:35.503Z,10.30
2017-05-19T18:56:04.255Z,8.07
2017-05-19T18:58:32.581Z,9.80
2017-05-19T19:01:00.911Z,12.48
2017-05-19T19:03:29.286Z,10.45
2017-05-19T19:05:57.591Z,9.83
2017-05-19T19:08:25.895Z,11.12
2017-05-19T19:10:54.199Z,9.10
2017-05-19T19:13:22.573Z,10.53
2017-05-19T19:15:50.967Z,11.00
2017-05-19T19:18:19.265Z,8.72
2017-05-19T19:20:47.638Z,9.18
2017-05-19T19:23:15.956Z,11.30
2017-05-19T19:25:44.260Z,10.43
2017-05-19T19:28:12.587Z,14.00
2017-05-19T19:30:40.946Z,16.13
2017-05-19T19:33:09.286Z,18.23
2017-05-19T19:35:37.563Z,12.38
2017-05-19T19:38:07.041Z,12.30
2017-05-19T19:40:36.667Z,14.33
2017-05-19T19:43:05.309Z,10.42
2017-05-19T19:45:33.591Z,9.42
2017-05-19T19:48:02.773Z,10.78
2017-05-19T19:50:31.111Z,11.25
2017-05-19T19:52:59.453Z,12.43
2017-05-19T19:55:27.816Z,10.47
2017-05-19T19:57:56.134Z,18.25
2017-05-19T20:00:24.505Z,12.02
2017-05-19T20:02:52.803Z,11.82
2017-05-19T20:05:21.103Z,13.33
2017-05-19T20:07:49.421Z,10.78
2017-05-19T20:10:17.715Z,11.77
2017-05-19T20:12:46.000Z,11.17
2017-05-19T20:15:14.309Z,14.80
2017-05-19T20:17:42.633Z,13.32
2017-05-19T20:20:10.952Z,10.40
2017-05-19T20:22:39.258Z,19.52
2017-05-19T20:25:07.607Z,13.00
2017-05-19T20:27:35.899Z,15.67
2017-05-19T20:30:04.362Z,11.55
2017-05-19T20:32:32.726Z,12.03
2017-05-19T20:35:01.180Z,11.02
2017-05-19T20:37:29.514Z,13.70
2017-05-19T20:39:59.720Z,11.52
2017-05-19T20:42:28.130Z,12.25
2017-05-19T20:44:57.182Z,17.50
2017-05-19T20:47:26.834Z,21.42
2017-05-19T20:49:55.128Z,16.23
2017-05-19T20:52:23.509Z,13.87
2017-05-19T20:54:51.844Z,13.03
2017-05-19T20:57:20.159Z,10.77
2017-05-19T20:59:48.468Z,10.82
2017-05-19T21:02:16.762Z,11.08
2017-05-19T21:04:45.072Z,13.08
2017-05-19T21:07:13.540Z,12.30
2017-05-19T21:09:42.118Z,11.78
2017-05-19T21:12:10.408Z,12.62
2017-05-19T21:14:38.703Z,17.68
2017-05-19T21:17:07.001Z,14.83
2017-05-19T21:19:35.306Z,14.82
2017-05-19T21:22:03.787Z,19.12
2017-05-19T21:24:32.169Z,14.32
2017-05-19T21:26:59.704Z,16.63
2017-05-19T21:29:28.007Z,15.98
2017-05-19T21:31:56.668Z,23.10
2017-05-19T21:34:25.015Z,19.88
2017-05-19T21:36:53.348Z,21.90
2017-05-19T21:39:21.665Z,21.10
2017-05-19T21:41:50.761Z,26.35
2017-05-19T21:44:19.064Z,16.73
2017-05-19T21:46:47.419Z,28.82
2017-05-19T21:49:15.706Z,27.33
2017-05-19T21:51:44.003Z,28.30
2017-05-19T21:54:11.874Z,26.38
2017-05-19T21:56:40.611Z,28.32
2017-05-19T21:59:08.899Z,26.70
2017-05-19T22:01:37.213Z,28.02
2017-05-19T22:04:05.517Z,29.33
2017-05-19T22:06:33.841Z,30.60
2017-05-19T22:09:02.239Z,29.63
2017-05-19T22:11:30.606Z,27.25
2017-05-19T22:13:58.908Z,27.87
2017-05-19T22:16:27.262Z,28.20
2017-05-19T22:18:55.595Z,23.72
2017-05-19T22:21:24.124Z,24.78
2017-05-19T22:23:53.834Z,22.25
2017-05-19T22:26:23.539Z,27.78
2017-05-19T22:28:51.859Z,21.75
2017-05-19T22:31:20.303Z,21.73
2017-05-19T22:33:48.645Z,24.72
2017-05-19T22:36:16.927Z,18.38
2017-05-19T22:38:45.242Z,25.17
2017-05-19T22:41:13.556Z,15.33
2017-05-19T22:43:41.860Z,23.40
2017-05-19T22:46:10.132Z,21.33
2017-05-19T22:48:39.412Z,19.28
2017-05-19T22:51:07.755Z,17.48
2017-05-19T22:53:36.028Z,17.13
2017-05-19T22:56:05.299Z,21.75
2017-05-19T22:58:33.649Z,18.97
2017-05-19T23:01:02.058Z,20.90
2017-05-19T23:03:30.361Z,18.52
2017-05-19T23:05:58.679Z,16.60
2017-05-19T23:08:26.985Z,16.73
2017-05-19T23:10:55.302Z,16.17
2017-05-19T23:13:23.609Z,14.75
2017-05-19T23:15:51.965Z,11.58
2017-05-19T23:18:20.267Z,11.20
2017-05-19T23:20:48.542Z,13.30
2017-05-19T23:23:16.845Z,9.93
2017-05-19T23:25:45.151Z,8.05
2017-05-19T23:28:13.464Z,8.10
2017-05-19T23:30:41.756Z,7.58
2017-05-19T23:33:10.031Z,8.95
2017-05-19T23:35:38.359Z,8.45
2017-05-19T23:38:06.663Z,7.07
2017-05-19T23:40:34.947Z,8.80
2017-05-19T23:43:03.235Z,7.18
2017-05-19T23:45:31.558Z,7.00
2017-05-19T23:47:59.832Z,6.73
2017-05-19T23:50:27.368Z,5.67
2017-05-19T23:52:55.669Z,5.73
2017-05-19T23:55:24.562Z,7.02
2017-05-19T23:57:52.843Z,5.65
